createdAt,value
2018-09-25T00:01:07.483Z,97684.75
2018-09-25T00:03:42.885Z,97688.05
2018-09-25T00:06:17.467Z,97686.63
2018-09-25T00:08:51.958Z,97684.70
2018-09-25T00:11:27.641Z,97682.84
2018-09-25T00:14:03.179Z,97689.69
2018-09-25T00:16:37.921Z,97688.41
2018-09-25T00:19:12.465Z,97689.00
2018-09-25T00:21:47.452Z,97684.75
2018-09-25T00:24:22.011Z,97690.75
2018-09-25T00:26:58.041Z,97692.71
2018-09-25T00:29:33.001Z,97695.63
2018-09-25T00:32:07.895Z,97692.20
2018-09-25T00:34:42.565Z,97691.66
2018-09-25T00:37:17.162Z,97700.63
2018-09-25T00:39:52.134Z,97703.38
2018-09-25T00:42:26.709Z,97706.11
2018-09-25T00:45:01.261Z,97705.05
2018-09-25T00:47:36.258Z,97705.78
2018-09-25T00:50:10.925Z,97708.20
2018-09-25T00:52:45.885Z,97708.45
2018-09-25T00:55:21.498Z,97713.39
2018-09-25T00:57:56.607Z,97719.94
2018-09-25T01:00:31.738Z,97718.70
2018-09-25T01:03:06.309Z,97714.44
2018-09-25T01:05:41.293Z,97711.97
2018-09-25T01:08:15.777Z,97705.34
2018-09-25T01:10:50.342Z,97711.91
2018-09-25T01:13:24.825Z,97704.89
2018-09-25T01:15:59.734Z,97704.03
2018-09-25T01:18:34.460Z,97703.81
2018-09-25T01:21:09.035Z,97706.22
2018-09-25T01:23:43.961Z,97708.23
2018-09-25T01:26:18.450Z,97710.97
2018-09-25T01:28:52.930Z,97717.45
2018-09-25T01:31:28.289Z,97717.95
2018-09-25T01:34:02.849Z,97710.55
2018-09-25T01:36:37.300Z,97717.57
2018-09-25T01:39:13.549Z,97721.59
2018-09-25T01:41:48.498Z,97720.59
2018-09-25T01:44:23.041Z,97723.09
2018-09-25T01:46:58.018Z,97721.91
2018-09-25T01:49:33.381Z,97720.08
2018-09-25T01:52:07.873Z,97722.16
2018-09-25T01:54:43.025Z,97729.44
2018-09-25T01:57:17.583Z,97731.77
2018-09-25T01:59:52.302Z,97726.07
2018-09-25T02:02:26.755Z,97722.70
2018-09-25T02:05:02.210Z,97734.89
2018-09-25T02:07:36.814Z,97725.65
2018-09-25T02:10:11.372Z,97727.25
2018-09-25T02:12:46.641Z,97732.80
2018-09-25T02:15:21.206Z,97737.81
2018-09-25T02:17:56.029Z,97735.52
2018-09-25T02:20:30.580Z,97743.17
2018-09-25T02:23:05.021Z,97738.05
2018-09-25T02:25:39.601Z,97744.53
2018-09-25T02:28:14.522Z,97743.45
2018-09-25T02:30:48.999Z,97745.63
2018-09-25T02:33:23.600Z,97752.43
2018-09-25T02:35:58.862Z,97747.37
2018-09-25T02:38:33.417Z,97750.37
2018-09-25T02:41:08.610Z,97756.81
2018-09-25T02:43:43.316Z,97761.61
2018-09-25T02:46:17.969Z,97765.79
2018-09-25T02:48:52.573Z,97761.61
2018-09-25T02:51:27.517Z,97768.00
2018-09-25T02:54:02.690Z,97768.83
2018-09-25T02:56:37.241Z,97767.33
2018-09-25T02:59:11.825Z,97768.47
2018-09-25T03:01:46.906Z,97764.50
2018-09-25T03:04:21.561Z,97767.73
2018-09-25T03:06:56.194Z,97777.19
2018-09-25T03:09:30.839Z,97778.89
2018-09-25T03:12:05.754Z,97776.95
2018-09-25T03:14:40.281Z,97777.63
2018-09-25T03:17:14.734Z,97782.31
2018-09-25T03:19:50.342Z,97783.34
2018-09-25T03:22:24.761Z,97783.39
2018-09-25T03:25:04.185Z,97779.19
2018-09-25T03:27:39.855Z,97791.93
2018-09-25T03:30:14.873Z,97792.98
2018-09-25T03:35:53.714Z,97795.10
2018-09-25T03:38:28.290Z,97799.78
2018-09-25T03:41:04.225Z,97805.20
2018-09-25T03:43:38.926Z,97800.95
2018-09-25T03:46:13.721Z,97809.92
2018-09-25T03:48:48.577Z,97808.66
2018-09-25T03:51:53.847Z,97812.15
2018-09-25T03:54:29.036Z,97806.35
2018-09-25T03:57:03.621Z,97807.66
2018-09-25T03:59:38.628Z,97807.60
2018-09-25T04:02:13.100Z,97805.85
2018-09-25T04:04:47.752Z,97812.05
2018-09-25T04:07:22.394Z,97811.14
2018-09-25T04:09:58.130Z,97800.83
2018-09-25T04:12:33.686Z,97801.33
2018-09-25T04:15:08.251Z,97802.84
2018-09-25T04:17:42.788Z,97811.55
2018-09-25T04:20:20.786Z,97805.52
2018-09-25T04:22:55.444Z,97812.87
2018-09-25T04:25:30.109Z,97815.23
2018-09-25T04:28:04.977Z,97814.35
2018-09-25T04:30:39.452Z,97816.23
2018-09-25T04:33:14.025Z,97815.53
2018-09-25T04:35:50.823Z,97820.56
2018-09-25T04:38:26.816Z,97831.81
2018-09-25T04:41:01.390Z,97832.98
2018-09-25T04:43:35.933Z,97833.66
2018-09-25T04:46:11.980Z,97839.96
2018-09-25T04:48:47.706Z,97841.11
2018-09-25T04:51:22.333Z,97841.11
2018-09-25T04:53:56.954Z,97839.52
2018-09-25T04:56:32.012Z,97848.91
2018-09-25T04:59:06.524Z,97852.19
2018-09-25T05:01:41.137Z,97850.45
2018-09-25T05:04:17.256Z,97853.58
2018-09-25T05:06:51.895Z,97851.02
2018-09-25T05:09:26.966Z,97855.41
2018-09-25T05:12:11.387Z,97855.73
2018-09-25T05:15:02.258Z,97861.19
2018-09-25T05:17:39.298Z,97863.34
2018-09-25T05:20:14.561Z,97864.66
2018-09-25T05:22:49.117Z,97867.48
2018-09-25T05:25:25.073Z,97874.14
2018-09-25T05:28:00.048Z,97884.20
2018-09-25T05:30:34.575Z,97883.13
2018-09-25T05:33:09.683Z,97892.17
2018-09-25T05:35:44.926Z,97893.48
2018-09-25T05:38:21.431Z,97887.14
2018-09-25T05:40:57.056Z,97895.80
2018-09-25T05:43:35.517Z,97900.22
2018-09-25T05:46:11.535Z,97905.08
2018-09-25T05:48:49.856Z,97906.02
2018-09-25T05:51:24.570Z,97912.95
2018-09-25T05:53:59.343Z,97910.95
2018-09-25T05:56:33.965Z,97906.23
2018-09-25T05:59:08.862Z,97909.22
2018-09-25T06:01:43.345Z,97902.84
2018-09-25T06:04:17.902Z,97906.62
2018-09-25T06:06:52.947Z,97902.05
2018-09-25T06:09:28.964Z,97908.68
2018-09-25T06:12:04.066Z,97911.86
2018-09-25T06:14:40.022Z,97911.19
2018-09-25T06:17:15.128Z,97914.81
2018-09-25T06:19:50.451Z,97913.06
2018-09-25T06:22:24.995Z,97918.45
2018-09-25T06:24:59.514Z,97924.55
2018-09-25T06:27:34.660Z,97924.23
2018-09-25T06:30:09.163Z,97928.03
2018-09-25T06:32:43.641Z,97923.98
2018-09-25T06:35:19.014Z,97933.59
2018-09-25T06:37:53.978Z,97938.88
2018-09-25T06:40:29.362Z,97937.20
2018-09-25T06:43:05.451Z,97946.70
2018-09-25T06:45:43.554Z,97950.87
2018-09-25T06:48:18.060Z,97948.35
2018-09-25T06:50:52.757Z,97953.06
2018-09-25T06:53:28.249Z,97955.82
2018-09-25T06:56:03.972Z,97955.03
2018-09-25T06:58:38.557Z,97960.00
2018-09-25T07:01:13.150Z,97964.65
2018-09-25T07:03:48.489Z,97968.27
2018-09-25T07:06:23.832Z,97970.67
2018-09-25T07:08:58.446Z,97970.20
2018-09-25T07:11:32.957Z,97973.97
2018-09-25T07:14:07.553Z,97971.63
2018-09-25T07:16:42.769Z,97979.17
2018-09-25T07:19:17.353Z,97980.51
2018-09-25T07:21:52.320Z,97977.91
2018-09-25T07:24:26.949Z,97978.55
2018-09-25T07:27:04.044Z,97978.09
2018-09-25T07:29:38.506Z,97985.23
2018-09-25T07:32:43.420Z,97986.70
2018-09-25T07:35:25.668Z,97996.61
2018-09-25T07:38:02.240Z,98003.98
2018-09-25T07:40:36.982Z,98007.16
2018-09-25T07:43:13.196Z,98008.97
2018-09-25T07:45:47.878Z,98003.37
2018-09-25T07:48:23.452Z,98007.91
2018-09-25T07:50:58.652Z,98010.53
2018-09-25T07:53:34.613Z,98003.75
2018-09-25T07:56:10.145Z,98011.02
2018-09-25T07:58:44.578Z,98015.14
2018-09-25T08:01:20.569Z,98019.64
2018-09-25T08:03:55.157Z,98017.53
2018-09-25T08:06:35.157Z,98019.64
2018-09-25T08:09:16.500Z,98018.50
2018-09-25T08:11:53.474Z,98026.84
2018-09-25T08:14:28.933Z,98032.28
2018-09-25T08:17:03.385Z,98028.28
2018-09-25T08:19:39.573Z,98037.73
2018-09-25T08:22:15.297Z,98041.48
2018-09-25T08:24:50.457Z,98043.25
2018-09-25T08:27:25.580Z,98038.94
2018-09-25T08:30:01.352Z,98041.92
2018-09-25T08:32:36.445Z,98047.89
2018-09-25T08:35:11.207Z,98050.36
2018-09-25T08:37:47.036Z,98048.65
2018-09-25T08:40:22.356Z,98051.13
2018-09-25T08:42:57.413Z,98048.88
2018-09-25T08:45:33.422Z,98053.47
2018-09-25T08:48:09.133Z,98057.59
2018-09-25T08:50:43.665Z,98051.72
2018-09-25T08:53:18.290Z,98044.58
2018-09-25T08:55:53.340Z,98055.13
2018-09-25T08:58:30.213Z,98047.55
2018-09-25T09:01:05.263Z,98053.78
2018-09-25T09:03:39.885Z,98051.05
2018-09-25T09:06:15.447Z,98059.38
2018-09-25T09:08:50.345Z,98056.56
2018-09-25T09:11:25.545Z,98059.88
2018-09-25T09:14:01.842Z,98057.58
2018-09-25T09:16:37.373Z,98062.84
2018-09-25T09:19:13.447Z,98059.42
2018-09-25T09:21:47.986Z,98058.59
2018-09-25T09:24:24.065Z,98061.58
2018-09-25T09:26:59.264Z,98067.55
2018-09-25T09:29:35.234Z,98065.02
2018-09-25T09:32:11.799Z,98068.00
2018-09-25T09:34:46.345Z,98070.67
2018-09-25T09:37:21.300Z,98068.05
2018-09-25T09:39:56.283Z,98065.20
2018-09-25T09:42:33.343Z,98063.28
2018-09-25T09:45:09.397Z,98068.53
2018-09-25T09:47:45.243Z,98077.77
2018-09-25T09:50:20.454Z,98081.15
2018-09-25T09:52:55.536Z,98079.02
2018-09-25T09:55:33.430Z,98080.47
2018-09-25T09:58:13.327Z,98075.03
2018-09-25T10:00:48.960Z,98074.81
2018-09-25T10:03:24.430Z,98078.20
2018-09-25T10:06:01.102Z,98077.91
2018-09-25T10:08:35.965Z,98083.23
2018-09-25T10:11:11.126Z,98092.99
2018-09-25T10:13:47.306Z,98091.34
2018-09-25T10:16:21.853Z,98092.02
2018-09-25T10:18:57.602Z,98098.27
2018-09-25T10:21:34.031Z,98101.44
2018-09-25T10:24:09.414Z,98099.72
2018-09-25T10:26:44.581Z,98089.90
2018-09-25T10:29:19.233Z,98088.81
2018-09-25T10:31:53.832Z,98086.73
2018-09-25T10:34:29.493Z,98090.52
2018-09-25T10:37:05.085Z,98088.64
2018-09-25T10:39:39.725Z,98088.20
2018-09-25T10:42:16.212Z,98090.18
2018-09-25T10:44:53.913Z,98092.27
2018-09-25T10:47:29.421Z,98098.26
2018-09-25T10:50:08.505Z,98103.67
2018-09-25T10:52:43.458Z,98099.29
2018-09-25T10:55:18.822Z,98099.88
2018-09-25T10:57:54.192Z,98092.14
2018-09-25T11:00:32.409Z,98085.09
2018-09-25T11:03:09.337Z,98091.98
2018-09-25T11:05:44.466Z,98092.61
2018-09-25T11:08:19.474Z,98096.41
2018-09-25T11:10:56.798Z,98102.03
2018-09-25T11:13:32.821Z,98102.97
2018-09-25T11:16:11.145Z,98101.73
2018-09-25T11:18:48.463Z,98101.75
2018-09-25T11:21:23.059Z,98094.64
2018-09-25T11:24:00.087Z,98098.66
2018-09-25T11:26:34.963Z,98091.95
2018-09-25T11:29:09.625Z,98089.55
2018-09-25T11:31:48.992Z,98081.39
2018-09-25T11:34:24.858Z,98085.55
2018-09-25T11:37:00.718Z,98079.13
2018-09-25T11:39:36.301Z,98075.98
2018-09-25T11:42:11.610Z,98082.93
2018-09-25T11:44:47.377Z,98075.18
2018-09-25T11:47:22.576Z,98073.27
2018-09-25T11:49:57.467Z,98084.38
2018-09-25T11:52:32.651Z,98088.38
2018-09-25T11:55:07.435Z,98086.06
2018-09-25T11:57:43.241Z,98085.37
2018-09-25T12:00:24.468Z,98092.48
2018-09-25T12:03:01.314Z,98083.63
2018-09-25T12:05:36.589Z,98081.98
2018-09-25T12:08:11.783Z,98075.14
2018-09-25T12:10:48.527Z,98077.58
2018-09-25T12:13:23.653Z,98078.20
2018-09-25T12:15:58.722Z,98077.66
2018-09-25T12:18:36.341Z,98078.59
2018-09-25T12:21:13.517Z,98076.81
2018-09-25T12:23:54.437Z,98077.00
2018-09-25T12:26:29.122Z,98082.36
2018-09-25T12:29:05.857Z,98084.73
2018-09-25T12:31:40.528Z,98086.64
2018-09-25T12:34:15.749Z,98081.70
2018-09-25T12:36:50.926Z,98081.75
2018-09-25T12:39:31.113Z,98084.16
2018-09-25T12:42:07.937Z,98080.46
2018-09-25T12:44:43.600Z,98078.85
2018-09-25T12:47:18.354Z,98074.69
2018-09-25T12:49:53.300Z,98071.77
2018-09-25T12:52:27.873Z,98077.38
2018-09-25T12:55:02.729Z,98082.94
2018-09-25T12:57:38.183Z,98083.29
2018-09-25T13:00:13.781Z,98093.45
2018-09-25T13:02:50.782Z,98083.19
2018-09-25T13:05:26.038Z,98086.63
2018-09-25T13:08:01.105Z,98086.02
2018-09-25T13:10:37.364Z,98081.66
2018-09-25T13:13:13.334Z,98082.27
2018-09-25T13:15:50.294Z,98074.43
2018-09-25T13:18:25.207Z,98069.50
2018-09-25T13:21:00.574Z,98071.97
2018-09-25T13:23:36.001Z,98067.13
2018-09-25T13:26:11.706Z,98067.08
2018-09-25T13:29:06.779Z,98067.16
2018-09-25T13:31:45.405Z,98064.92
2018-09-25T13:34:21.435Z,98058.86
2018-09-25T13:36:55.957Z,98058.78
2018-09-25T13:39:34.339Z,98064.57
2018-09-25T13:42:12.897Z,98052.05
2018-09-25T13:44:48.328Z,98056.36
2018-09-25T13:47:25.966Z,98053.30
2018-09-25T13:50:06.403Z,98058.75
2018-09-25T13:52:45.295Z,98055.95
2018-09-25T13:55:23.226Z,98047.67
2018-09-25T13:57:58.931Z,98053.95
2018-09-25T14:00:33.907Z,98066.91
2018-09-25T14:03:08.485Z,98065.28
2018-09-25T14:05:46.223Z,98056.13
2018-09-25T14:08:21.590Z,98054.26
2018-09-25T14:11:00.942Z,98048.56
2018-09-25T14:13:36.123Z,98043.43
2018-09-25T14:16:11.115Z,98039.57
2018-09-25T14:18:45.918Z,98040.86
2018-09-25T14:21:21.091Z,98039.19
2018-09-25T14:23:58.453Z,98034.77
2018-09-25T14:26:33.860Z,98042.05
2018-09-25T14:29:08.489Z,98034.55
2018-09-25T14:31:43.345Z,98029.30
2018-09-25T14:34:19.859Z,98032.44
2018-09-25T14:36:57.526Z,98040.48
2018-09-25T14:45:32.322Z,98048.84
2018-09-25T14:48:11.618Z,98051.59
2018-09-25T14:50:47.541Z,98041.78
2018-09-25T14:53:22.457Z,98049.00
2018-09-25T14:55:57.053Z,98048.59
2018-09-25T14:58:33.908Z,98045.44
2018-09-25T15:01:08.564Z,98037.52
2018-09-25T15:03:43.726Z,98038.38
2018-09-25T15:06:18.497Z,98025.18
2018-09-25T15:08:52.981Z,98024.58
2018-09-25T15:11:28.424Z,98017.30
2018-09-25T15:14:03.035Z,98007.55
2018-09-25T15:16:38.437Z,98000.66
2018-09-25T15:19:14.073Z,97996.20
2018-09-25T15:21:51.350Z,97997.22
2018-09-25T15:24:27.640Z,97993.41
2018-09-25T15:27:02.142Z,97999.66
2018-09-25T15:29:37.126Z,97997.05
2018-09-25T15:32:25.539Z,98003.47
2018-09-25T15:35:03.196Z,98011.63
2018-09-25T15:37:39.479Z,98011.14
2018-09-25T15:40:15.285Z,98012.74
2018-09-25T15:42:53.194Z,98018.83
2018-09-25T15:45:28.171Z,98023.25
2018-09-25T15:48:05.627Z,98023.16
2018-09-25T15:50:41.223Z,98024.77
2018-09-25T15:53:17.730Z,98026.49
2018-09-25T15:55:54.054Z,98019.61
2018-09-25T15:58:42.807Z,98025.09
2018-09-25T16:04:01.207Z,98038.38
2018-09-25T16:06:36.362Z,98030.08
2018-09-25T16:09:14.494Z,98033.50
2018-09-25T16:11:50.765Z,98039.80
2018-09-25T16:14:27.161Z,98050.02
2018-09-25T16:17:02.170Z,98054.32
2018-09-25T16:19:37.145Z,98057.86
2018-09-25T16:22:11.937Z,98063.19
2018-09-25T16:24:46.898Z,98066.28
2018-09-25T16:27:21.455Z,98075.44
2018-09-25T16:29:56.002Z,98074.00
2018-09-25T16:32:31.848Z,98072.36
2018-09-25T16:35:09.547Z,98074.70
2018-09-25T16:37:47.335Z,98072.70
2018-09-25T16:40:21.853Z,98078.73
2018-09-25T16:42:56.413Z,98075.94
2018-09-25T16:45:34.296Z,98075.68
2018-09-25T16:48:08.932Z,98071.03
2018-09-25T16:50:44.949Z,98078.55
2018-09-25T16:53:19.513Z,98074.91
2018-09-25T16:55:55.397Z,98058.72
2018-09-25T16:58:32.389Z,98058.56
2018-09-25T17:01:06.966Z,98055.84
2018-09-25T17:03:41.495Z,98057.87
2018-09-25T17:06:16.383Z,98065.58
2018-09-25T17:08:51.259Z,98070.41
2018-09-25T17:11:28.073Z,98070.75
2018-09-25T17:14:08.610Z,98067.86
2018-09-25T17:16:44.402Z,98065.94
2018-09-25T17:19:20.117Z,98071.48
2018-09-25T17:22:00.181Z,98082.17
2018-09-25T17:24:34.791Z,98085.38
2018-09-25T17:27:12.032Z,98081.79
2018-09-25T17:29:47.326Z,98093.23
2018-09-25T17:32:23.609Z,98093.97
2018-09-25T17:34:58.329Z,98098.90
2018-09-25T17:37:34.297Z,98106.80
2018-09-25T17:40:12.167Z,98117.55
2018-09-25T17:42:47.884Z,98122.08
2018-09-25T17:45:22.967Z,98124.02
2018-09-25T17:47:58.357Z,98123.75
2018-09-25T17:50:32.929Z,98127.52
2018-09-25T17:53:08.558Z,98138.36
2018-09-25T17:55:44.368Z,98144.41
2018-09-25T17:58:23.415Z,98141.98
2018-09-25T18:01:03.604Z,98147.59
2018-09-25T18:03:38.794Z,98144.55
2018-09-25T18:06:14.789Z,98145.17
2018-09-25T18:08:51.539Z,98150.75
2018-09-25T18:11:28.435Z,98141.20
2018-09-25T18:14:03.552Z,98145.36
2018-09-25T18:16:39.291Z,98153.91
2018-09-25T18:19:17.129Z,98150.63
2018-09-25T18:21:53.293Z,98154.66
2018-09-25T18:24:29.419Z,98142.34
2018-09-25T18:27:07.123Z,98145.34
2018-09-25T18:29:43.200Z,98151.80
2018-09-25T18:32:19.599Z,98154.19
2018-09-25T18:34:56.872Z,98154.92
2018-09-25T18:37:33.243Z,98162.57
2018-09-25T18:40:09.143Z,98153.00
2018-09-25T18:42:44.163Z,98160.30
2018-09-25T18:45:21.405Z,98161.64
2018-09-25T18:47:57.867Z,98171.80
2018-09-25T18:50:33.403Z,98171.84
2018-09-25T18:53:10.114Z,98173.02
2018-09-25T18:55:45.812Z,98166.06
2018-09-25T18:58:22.489Z,98161.12
2018-09-25T19:00:58.548Z,98165.28
2018-09-25T19:03:33.543Z,98167.11
2018-09-25T19:06:09.398Z,98169.27
2018-09-25T19:08:44.737Z,98170.80
2018-09-25T19:11:22.033Z,98165.66
2018-09-25T19:14:04.749Z,98168.80
2018-09-25T19:16:40.565Z,98169.67
2018-09-25T19:19:15.758Z,98169.52
2018-09-25T19:21:52.533Z,98177.83
2018-09-25T19:24:29.435Z,98173.36
2018-09-25T19:27:04.525Z,98168.69
2018-09-25T19:29:45.720Z,98171.83
2018-09-25T19:32:21.598Z,98169.34
2018-09-25T19:35:00.697Z,98173.48
2018-09-25T19:37:35.762Z,98183.77
2018-09-25T19:40:12.517Z,98182.97
2018-09-25T19:42:48.008Z,98183.80
2018-09-25T19:45:24.372Z,98177.51
2018-09-25T19:47:59.666Z,98182.01
2018-09-25T19:50:35.984Z,98183.17
2018-09-25T19:53:11.413Z,98172.94
2018-09-25T19:55:47.411Z,98168.83
2018-09-25T19:58:28.645Z,98169.98
2018-09-25T20:01:05.553Z,98168.82
2018-09-25T20:03:40.460Z,98162.73
2018-09-25T20:06:15.762Z,98152.48
2018-09-25T20:08:52.581Z,98160.27
2018-09-25T20:11:29.617Z,98157.95
2018-09-25T20:14:05.501Z,98153.48
2018-09-25T20:16:43.285Z,98149.20
2018-09-25T20:21:59.905Z,98149.22
2018-09-25T20:24:35.323Z,98148.06
2018-09-25T20:27:11.472Z,98147.07
2018-09-25T20:29:48.466Z,98152.86
2018-09-25T20:32:23.924Z,98157.82
2018-09-25T20:34:59.653Z,98151.87
2018-09-25T20:37:37.274Z,98143.75
2018-09-25T20:40:14.205Z,98150.53
2018-09-25T20:42:51.444Z,98150.38
2018-09-25T20:45:26.409Z,98152.55
2018-09-25T20:48:01.419Z,98153.38
2018-09-25T20:50:36.959Z,98155.85
2018-09-25T20:53:12.571Z,98154.88
2018-09-25T20:55:47.411Z,98154.20
2018-09-25T20:58:22.430Z,98156.67
2018-09-25T21:01:00.494Z,98163.80
2018-09-25T21:03:35.497Z,98160.84
2018-09-25T21:06:13.976Z,98164.63
2018-09-25T21:08:49.533Z,98160.98
2018-09-25T21:11:25.327Z,98160.49
2018-09-25T21:14:00.828Z,98162.98
2018-09-25T21:16:38.011Z,98160.81
2018-09-25T21:19:14.454Z,98168.12
2018-09-25T21:21:49.480Z,98159.16
2018-09-25T21:24:24.587Z,98157.03
2018-09-25T21:27:00.298Z,98156.71
2018-09-25T21:29:37.203Z,98149.77
2018-09-25T21:32:13.413Z,98151.25
2018-09-25T21:34:48.193Z,98150.58
2018-09-25T21:37:23.309Z,98141.30
2018-09-25T21:39:57.989Z,98147.58
2018-09-25T21:42:32.889Z,98155.69
2018-09-25T21:45:07.647Z,98150.89
2018-09-25T21:47:42.835Z,98155.04
2018-09-25T21:50:34.466Z,98151.56
2018-09-25T21:53:11.839Z,98156.69
2018-09-25T21:55:49.344Z,98153.67
2018-09-25T21:58:27.578Z,98146.07
2018-09-25T22:01:06.118Z,98145.09
2018-09-25T22:03:41.013Z,98146.90
2018-09-25T22:06:15.597Z,98143.44
2018-09-25T22:08:50.137Z,98146.40
2018-09-25T22:11:26.828Z,98142.75
2018-09-25T22:14:01.568Z,98143.39
2018-09-25T22:16:37.036Z,98148.37
2018-09-25T22:19:12.762Z,98144.39
2018-09-25T22:21:47.389Z,98139.27
2018-09-25T22:24:21.971Z,98135.64
2018-09-25T22:26:56.898Z,98136.14
2018-09-25T22:29:31.570Z,98128.86
2018-09-25T22:32:06.203Z,98119.74
2018-09-25T22:34:42.281Z,98111.83
2018-09-25T22:37:16.869Z,98122.89
2018-09-25T22:39:51.350Z,98124.52
2018-09-25T22:42:25.935Z,98121.20
2018-09-25T22:45:01.006Z,98124.36
2018-09-25T22:47:35.579Z,98124.52
2018-09-25T22:50:10.355Z,98127.16
2018-09-25T22:52:45.258Z,98118.41
2018-09-25T22:55:21.555Z,98112.78
2018-09-25T22:57:56.099Z,98116.27
2018-09-25T23:00:31.383Z,98118.75
2018-09-25T23:03:06.086Z,98107.17
2018-09-25T23:05:41.023Z,98109.31
2018-09-25T23:08:15.659Z,98106.19
2018-09-25T23:10:50.295Z,98103.55
2018-09-25T23:13:25.292Z,98092.47
2018-09-25T23:16:01.375Z,98090.81
2018-09-25T23:18:36.975Z,98076.62
2018-09-25T23:21:11.618Z,98076.44
2018-09-25T23:23:46.486Z,98079.92
2018-09-25T23:26:21.290Z,98085.84
2018-09-25T23:28:55.882Z,98099.38
2018-09-25T23:31:30.789Z,98102.85
2018-09-25T23:34:05.249Z,98099.72
2018-09-25T23:36:39.995Z,98099.22
2018-09-25T23:39:15.569Z,98087.01
2018-09-25T23:41:50.133Z,98066.87
2018-09-25T23:44:24.099Z,98069.00
2018-09-25T23:46:58.634Z,98062.08
2018-09-25T23:49:38.976Z,98059.45
2018-09-25T23:52:20.349Z,98057.95
2018-09-25T23:54:55.319Z,98048.72
2018-09-25T23:57:29.645Z,98046.40
